createdAt,value
2018-01-15T00:02:21.111Z,15.70
2018-01-15T00:04:58.212Z,15.23
2018-01-15T00:07:26.551Z,16.12
2018-01-15T00:09:54.626Z,18.08
2018-01-15T00:12:22.700Z,16.90
2018-01-15T00:14:51.068Z,15.32
2018-01-15T00:17:19.147Z,15.25
2018-01-15T00:19:47.216Z,16.00
2018-01-15T00:22:15.281Z,18.85
2018-01-15T00:24:43.358Z,18.77
2018-01-15T00:27:11.431Z,18.37
2018-01-15T00:29:39.515Z,16.75
2018-01-15T00:32:07.580Z,14.98
2018-01-15T00:34:35.652Z,14.80
2018-01-15T00:37:03.722Z,16.12
2018-01-15T00:39:31.790Z,16.75
2018-01-15T00:41:59.854Z,16.75
2018-01-15T00:44:27.918Z,15.18
2018-01-15T00:46:55.992Z,16.95
2018-01-15T00:49:24.082Z,15.52
2018-01-15T00:51:52.149Z,15.35
2018-01-15T00:54:20.214Z,16.45
2018-01-15T00:56:48.291Z,17.70
2018-01-15T00:59:16.371Z,16.23
2018-01-15T01:01:44.442Z,16.98
2018-01-15T01:04:12.515Z,17.52
2018-01-15T01:06:40.599Z,17.40
2018-01-15T01:09:08.674Z,17.75
2018-01-15T01:11:36.732Z,17.48
2018-01-15T01:14:04.802Z,18.12
2018-01-15T01:16:32.868Z,16.45
2018-01-15T01:19:00.943Z,16.67
2018-01-15T01:21:29.019Z,17.05
2018-01-15T01:23:57.085Z,18.55
2018-01-15T01:26:25.153Z,17.25
2018-01-15T01:28:53.226Z,17.87
2018-01-15T01:31:21.303Z,18.02
2018-01-15T01:33:49.370Z,16.30
2018-01-15T01:36:17.457Z,16.45
2018-01-15T01:38:46.310Z,17.70
2018-01-15T01:41:14.391Z,15.73
2018-01-15T01:43:42.458Z,18.15
2018-01-15T01:46:10.535Z,16.58
2018-01-15T01:48:38.605Z,17.45
2018-01-15T01:51:06.680Z,16.73
2018-01-15T01:53:34.754Z,20.77
2018-01-15T01:56:02.825Z,17.90
2018-01-15T01:58:30.887Z,18.90
2018-01-15T02:00:58.949Z,17.33
2018-01-15T02:03:27.025Z,18.48
2018-01-15T02:05:55.089Z,17.33
2018-01-15T02:08:23.155Z,19.23
2018-01-15T02:10:51.226Z,17.40
2018-01-15T02:13:19.299Z,17.37
2018-01-15T02:15:47.366Z,16.55
2018-01-15T02:18:15.443Z,16.80
2018-01-15T02:20:43.615Z,18.73
2018-01-15T02:23:11.691Z,18.25
2018-01-15T02:25:39.768Z,16.12
2018-01-15T02:28:07.826Z,18.52
2018-01-15T02:30:35.902Z,17.87
2018-01-15T02:33:04.011Z,17.35
2018-01-15T02:35:32.851Z,17.30
2018-01-15T02:38:00.922Z,18.33
2018-01-15T02:40:28.999Z,17.62
2018-01-15T02:42:57.062Z,16.30
2018-01-15T02:45:25.162Z,17.48
2018-01-15T02:47:53.234Z,17.45
2018-01-15T02:50:21.303Z,17.08
2018-01-15T02:52:50.234Z,16.27
2018-01-15T02:55:18.306Z,18.00
2018-01-15T02:57:46.376Z,17.90
2018-01-15T03:00:14.450Z,17.58
2018-01-15T03:02:42.516Z,19.40
2018-01-15T03:05:10.578Z,17.45
2018-01-15T03:07:38.659Z,17.27
2018-01-15T03:10:06.741Z,18.95
2018-01-15T03:12:34.805Z,19.67
2018-01-15T03:15:02.875Z,18.75
2018-01-15T03:17:30.950Z,17.92
2018-01-15T03:19:59.018Z,17.90
2018-01-15T03:22:27.095Z,18.40
2018-01-15T03:24:55.156Z,18.27
2018-01-15T03:27:23.218Z,18.90
2018-01-15T03:29:51.593Z,17.80
2018-01-15T03:32:19.668Z,17.98
2018-01-15T03:34:47.743Z,17.35
2018-01-15T03:37:15.803Z,17.10
2018-01-15T03:39:43.875Z,18.75
2018-01-15T03:42:11.947Z,18.62
2018-01-15T03:44:40.026Z,17.65
2018-01-15T03:47:08.094Z,18.85
2018-01-15T03:49:36.174Z,19.40
2018-01-15T03:52:04.246Z,18.42
2018-01-15T03:54:32.319Z,19.85
2018-01-15T03:57:00.391Z,19.65
2018-01-15T03:59:28.470Z,20.62
2018-01-15T04:01:56.599Z,18.48
2018-01-15T04:04:24.666Z,20.05
2018-01-15T04:06:52.739Z,19.67
2018-01-15T04:09:20.807Z,18.52
2018-01-15T04:11:48.875Z,20.45
2018-01-15T04:14:17.716Z,17.75
2018-01-15T04:16:45.782Z,18.50
2018-01-15T04:19:13.871Z,17.83
2018-01-15T04:21:41.935Z,19.35
2018-01-15T04:24:10.037Z,18.85
2018-01-15T04:26:38.876Z,18.25
2018-01-15T04:29:06.945Z,17.45
2018-01-15T04:31:35.024Z,19.05
2018-01-15T04:34:03.078Z,17.58
2018-01-15T04:36:31.146Z,17.92
2018-01-15T04:38:59.211Z,18.33
2018-01-15T04:41:27.282Z,20.25
2018-01-15T04:43:55.353Z,19.87
2018-01-15T04:46:23.427Z,17.20
2018-01-15T04:48:51.495Z,19.45
2018-01-15T04:51:19.562Z,18.87
2018-01-15T04:53:47.630Z,20.30
2018-01-15T04:56:15.710Z,19.00
2018-01-15T04:58:43.774Z,19.90
2018-01-15T05:01:11.850Z,17.42
2018-01-15T05:03:39.922Z,19.08
2018-01-15T05:06:07.990Z,19.33
2018-01-15T05:08:36.054Z,20.62
2018-01-15T05:11:04.131Z,19.35
2018-01-15T05:13:32.194Z,19.30
2018-01-15T05:16:00.263Z,18.70
2018-01-15T05:18:28.339Z,17.80
2018-01-15T05:20:56.410Z,18.92
2018-01-15T05:23:24.482Z,19.17
2018-01-15T05:25:52.553Z,18.60
2018-01-15T05:28:20.622Z,19.25
2018-01-15T05:30:48.694Z,19.73
2018-01-15T05:33:16.758Z,18.83
2018-01-15T05:35:44.831Z,17.98
2018-01-15T05:38:12.910Z,19.10
2018-01-15T05:40:40.983Z,18.73
2018-01-15T05:43:09.053Z,18.67
2018-01-15T05:45:37.157Z,19.45
2018-01-15T05:48:05.242Z,18.65
2018-01-15T05:50:33.315Z,25.45
2018-01-15T05:53:02.150Z,21.90
2018-01-15T05:55:30.223Z,18.12
2018-01-15T05:57:58.297Z,17.50
2018-01-15T06:00:26.363Z,18.27
2018-01-15T06:02:54.426Z,19.60
2018-01-15T06:05:22.496Z,20.12
2018-01-15T06:07:50.575Z,18.05
2018-01-15T06:10:18.642Z,18.80
2018-01-15T06:12:46.706Z,19.50
2018-01-15T06:15:14.776Z,16.90
2018-01-15T06:17:42.843Z,18.60
2018-01-15T06:20:10.918Z,18.15
2018-01-15T06:22:38.983Z,18.45
2018-01-15T06:25:07.055Z,21.20
2018-01-15T06:27:35.119Z,19.37
2018-01-15T06:30:03.188Z,20.17
2018-01-15T06:32:31.253Z,21.10
2018-01-15T06:34:59.333Z,20.10
2018-01-15T06:37:27.389Z,20.17
2018-01-15T06:39:55.459Z,22.58
2018-01-15T06:42:23.558Z,24.80
2018-01-15T06:44:51.635Z,19.80
2018-01-15T06:47:19.706Z,21.95
2018-01-15T06:49:47.779Z,22.92
2018-01-15T06:52:15.851Z,21.15
2018-01-15T06:54:43.927Z,18.40
2018-01-15T06:57:11.999Z,21.95
2018-01-15T06:59:40.079Z,20.73
2018-01-15T07:02:08.155Z,21.02
2018-01-15T07:04:36.227Z,21.50
2018-01-15T07:07:04.318Z,22.35
2018-01-15T07:09:33.161Z,22.67
2018-01-15T07:12:01.242Z,21.37
2018-01-15T07:14:29.354Z,20.23
2018-01-15T07:16:58.208Z,20.33
2018-01-15T07:19:26.274Z,20.40
2018-01-15T07:21:54.354Z,20.98
2018-01-15T07:24:22.434Z,21.25
2018-01-15T07:26:50.510Z,20.17
2018-01-15T07:29:28.478Z,21.23
2018-01-15T07:31:56.550Z,20.45
2018-01-15T07:34:24.857Z,20.23
2018-01-15T07:36:53.792Z,22.25
2018-01-15T07:39:21.879Z,20.30
2018-01-15T07:41:50.011Z,19.92
2018-01-15T07:44:19.894Z,19.25
2018-01-15T07:46:47.996Z,18.20
2018-01-15T07:49:20.568Z,21.00
2018-01-15T07:51:48.982Z,19.98
2018-01-15T07:54:17.071Z,14.65
2018-01-15T07:56:45.150Z,17.95
2018-01-15T07:59:13.222Z,19.80
2018-01-15T08:01:41.306Z,17.20
2018-01-15T08:04:09.622Z,19.70
2018-01-15T08:06:37.702Z,20.50
2018-01-15T08:09:05.782Z,20.95
2018-01-15T08:11:33.862Z,18.12
2018-01-15T08:14:01.938Z,19.75
2018-01-15T08:16:30.003Z,18.42
2018-01-15T08:18:58.083Z,19.25
2018-01-15T08:21:26.923Z,20.15
2018-01-15T08:23:55.768Z,21.65
2018-01-15T08:26:23.834Z,23.35
2018-01-15T08:28:51.945Z,15.00
2018-01-15T08:31:20.003Z,20.80
2018-01-15T08:33:48.089Z,17.73
2018-01-15T08:36:16.925Z,21.92
2018-01-15T08:38:44.999Z,20.55
2018-01-15T08:41:13.076Z,17.75
2018-01-15T08:43:41.151Z,17.33
2018-01-15T08:46:09.217Z,16.85
2018-01-15T08:48:37.302Z,17.55
2018-01-15T08:51:05.376Z,14.98
2018-01-15T08:53:33.446Z,17.30
2018-01-15T08:56:01.515Z,16.10
2018-01-15T08:58:29.595Z,16.98
2018-01-15T09:00:57.697Z,16.25
2018-01-15T09:03:25.739Z,15.15
2018-01-15T09:05:53.814Z,15.68
2018-01-15T09:08:21.882Z,14.87
2018-01-15T09:10:49.962Z,15.43
2018-01-15T09:13:18.790Z,15.00
2018-01-15T09:15:46.858Z,15.18
2018-01-15T09:18:14.934Z,15.80
2018-01-15T09:20:43.106Z,15.18
2018-01-15T09:23:11.175Z,12.40
2018-01-15T09:25:39.247Z,15.55
2018-01-15T09:28:07.327Z,13.73
2018-01-15T09:30:35.394Z,14.50
2018-01-15T09:33:03.462Z,12.37
2018-01-15T09:35:31.538Z,15.13
2018-01-15T09:37:59.607Z,14.63
2018-01-15T09:40:27.678Z,13.07
2018-01-15T09:42:55.764Z,14.43
2018-01-15T09:45:23.825Z,13.80
2018-01-15T09:47:51.903Z,15.15
2018-01-15T09:50:19.974Z,13.05
2018-01-15T09:52:48.046Z,14.68
2018-01-15T09:55:16.114Z,13.70
2018-01-15T09:57:44.191Z,13.95
2018-01-15T10:00:12.263Z,12.13
2018-01-15T10:02:40.370Z,13.20
2018-01-15T10:05:09.301Z,12.90
2018-01-15T10:07:37.367Z,12.68
2018-01-15T10:10:05.437Z,13.30
2018-01-15T10:12:33.529Z,12.82
2018-01-15T10:15:01.587Z,13.43
2018-01-15T10:17:29.661Z,14.20
2018-01-15T10:19:57.733Z,12.55
2018-01-15T10:22:25.806Z,12.57
2018-01-15T10:24:53.892Z,11.30
2018-01-15T10:27:21.954Z,13.32
2018-01-15T10:29:50.934Z,11.63
2018-01-15T10:32:19.012Z,12.75
2018-01-15T10:34:47.086Z,12.82
2018-01-15T10:37:15.171Z,10.75
2018-01-15T10:39:43.236Z,12.63
2018-01-15T10:42:11.296Z,11.93
2018-01-15T10:44:39.366Z,11.50
2018-01-15T10:47:07.426Z,10.70
2018-01-15T10:49:35.506Z,10.95
2018-01-15T10:52:03.562Z,10.30
2018-01-15T10:54:31.641Z,8.95
2018-01-15T10:57:00.494Z,11.50
2018-01-15T10:59:28.562Z,9.40
2018-01-15T11:01:57.400Z,10.30
2018-01-15T11:04:25.475Z,10.80
2018-01-15T11:06:53.537Z,10.32
2018-01-15T11:09:21.678Z,9.30
2018-01-15T11:11:49.747Z,10.52
2018-01-15T11:14:17.805Z,9.48
2018-01-15T11:16:45.866Z,8.63
2018-01-15T11:19:14.729Z,9.43
2018-01-15T11:21:42.786Z,10.23
2018-01-15T11:24:10.846Z,9.32
2018-01-15T11:26:38.917Z,8.93
2018-01-15T11:29:07.886Z,10.45
2018-01-15T11:31:35.974Z,9.52
2018-01-15T11:34:04.038Z,8.35
2018-01-15T11:36:32.115Z,8.98
2018-01-15T11:39:00.203Z,9.57
2018-01-15T11:41:28.279Z,9.63
2018-01-15T11:43:56.349Z,10.43
2018-01-15T11:46:24.422Z,8.57
2018-01-15T11:48:52.514Z,8.57
2018-01-15T11:51:21.354Z,7.73
2018-01-15T11:53:49.431Z,9.27
2018-01-15T11:56:17.506Z,10.07
2018-01-15T11:58:45.586Z,8.52
2018-01-15T12:01:13.655Z,8.57
2018-01-15T12:03:41.731Z,9.43
2018-01-15T12:06:09.792Z,8.57
2018-01-15T12:08:38.142Z,9.17
2018-01-15T12:11:06.254Z,8.17
2018-01-15T12:13:34.320Z,8.43
2018-01-15T12:16:02.377Z,9.17
2018-01-15T12:18:30.449Z,9.90
2018-01-15T12:20:58.513Z,8.70
2018-01-15T12:23:26.587Z,8.80
2018-01-15T12:25:54.655Z,10.10
2018-01-15T12:28:22.726Z,9.47
2018-01-15T12:30:50.801Z,8.10
2018-01-15T12:33:18.867Z,10.00
2018-01-15T12:35:46.927Z,8.07
2018-01-15T12:38:15.019Z,9.50
2018-01-15T12:40:43.082Z,9.07
2018-01-15T12:43:11.156Z,8.60
2018-01-15T12:45:39.230Z,9.20
2018-01-15T12:48:07.310Z,8.23
2018-01-15T12:50:35.457Z,9.27
2018-01-15T12:53:03.530Z,9.87
2018-01-15T12:55:31.591Z,9.20
2018-01-15T12:57:59.664Z,8.13
2018-01-15T13:00:27.732Z,9.30
2018-01-15T13:02:55.806Z,8.32
2018-01-15T13:11:41.714Z,8.30
2018-01-15T13:14:09.788Z,9.40
2018-01-15T13:16:37.866Z,8.57
2018-01-15T13:19:05.937Z,8.55
2018-01-15T13:21:34.050Z,7.57
2018-01-15T13:24:02.127Z,9.40
2018-01-15T13:26:30.211Z,8.67
2018-01-15T13:28:59.130Z,8.70
2018-01-15T13:31:27.198Z,9.70
2018-01-15T13:33:55.282Z,8.60
2018-01-15T13:36:23.431Z,8.23
2018-01-15T13:38:51.500Z,9.20
2018-01-15T13:41:19.562Z,9.37
2018-01-15T13:43:48.394Z,9.53
2018-01-15T13:46:16.489Z,9.43
2018-01-15T13:48:44.564Z,9.60
2018-01-15T13:51:12.642Z,7.78
2018-01-15T13:53:40.751Z,10.43
2018-01-15T13:56:08.819Z,9.98
2018-01-15T13:58:37.279Z,9.30
2018-01-15T14:01:06.273Z,9.18
2018-01-15T14:03:34.354Z,10.00
2018-01-15T14:06:02.526Z,8.50
2018-01-15T14:08:30.688Z,8.32
2018-01-15T14:10:59.200Z,8.88
2018-01-15T14:13:27.297Z,9.63
2018-01-15T14:15:55.676Z,7.55
2018-01-15T14:18:23.822Z,9.23
2018-01-15T14:20:52.316Z,9.25
2018-01-15T14:23:20.576Z,8.57
2018-01-15T14:25:49.383Z,9.10
2018-01-15T14:28:20.486Z,8.20
2018-01-15T14:30:48.916Z,10.02
2018-01-15T14:33:16.994Z,9.35
2018-01-15T14:35:45.063Z,8.07
2018-01-15T14:38:13.350Z,8.57
2018-01-15T14:40:41.423Z,9.10
2018-01-15T14:43:09.578Z,9.00
2018-01-15T14:45:37.641Z,8.60
2018-01-15T14:48:05.703Z,7.62
2018-01-15T14:50:33.780Z,9.80
2018-01-15T14:53:01.846Z,10.25
2018-01-15T14:55:29.924Z,21.33
2018-01-15T14:57:57.990Z,10.05
2018-01-15T15:00:26.068Z,10.77
2018-01-15T15:02:54.133Z,10.40
2018-01-15T15:05:23.222Z,8.85
2018-01-15T15:07:51.286Z,7.95
2018-01-15T15:10:19.361Z,9.60
2018-01-15T15:12:47.435Z,9.80
2018-01-15T15:15:15.512Z,8.07
2018-01-15T15:17:43.578Z,7.70
2018-01-15T15:20:11.642Z,7.40
2018-01-15T15:22:39.703Z,9.30
2018-01-15T15:25:07.770Z,8.77
2018-01-15T15:27:35.838Z,9.85
2018-01-15T15:30:03.903Z,7.05
2018-01-15T15:32:31.982Z,7.05
2018-01-15T15:35:00.036Z,8.93
2018-01-15T15:37:28.102Z,9.05
2018-01-15T15:39:56.303Z,8.45
2018-01-15T15:42:24.470Z,9.90
2018-01-15T15:44:52.533Z,8.70
2018-01-15T15:47:20.607Z,8.82
2018-01-15T15:49:48.665Z,7.85
2018-01-15T15:52:16.730Z,9.63
2018-01-15T15:54:44.798Z,9.48
2018-01-15T15:57:12.866Z,8.32
2018-01-15T15:59:40.939Z,9.85
2018-01-15T16:02:09.767Z,8.80
2018-01-15T16:04:37.825Z,7.85
2018-01-15T16:07:05.903Z,9.63
2018-01-15T16:09:33.970Z,9.63
2018-01-15T16:12:02.034Z,9.73
2018-01-15T16:14:30.098Z,10.77
2018-01-15T16:16:58.175Z,9.02
2018-01-15T16:19:26.245Z,10.32
2018-01-15T16:25:01.478Z,8.85
2018-01-15T16:27:29.555Z,9.70
2018-01-15T16:29:57.631Z,8.85
2018-01-15T16:32:25.698Z,8.55
2018-01-15T16:34:53.766Z,10.85
2018-01-15T16:37:21.839Z,10.98
2018-01-15T16:39:49.902Z,7.95
2018-01-15T16:42:17.966Z,9.02
2018-01-15T16:44:46.805Z,8.70
2018-01-15T16:47:14.886Z,9.02
2018-01-15T16:49:43.057Z,9.98
2018-01-15T16:52:11.142Z,8.88
2018-01-15T16:54:39.204Z,32.90
2018-01-15T16:57:07.310Z,11.48
2018-01-15T16:59:35.424Z,14.77
2018-01-15T17:02:03.456Z,9.52
2018-01-15T17:04:31.549Z,16.08
2018-01-15T17:06:59.615Z,12.40
2018-01-15T17:09:28.733Z,11.35
2018-01-15T17:11:56.798Z,10.93
2018-01-15T17:14:24.897Z,13.60
2018-01-15T17:16:52.969Z,9.88
2018-01-15T17:19:21.035Z,11.25
2018-01-15T17:21:49.200Z,9.60
2018-01-15T17:24:17.390Z,10.10
2018-01-15T17:26:45.474Z,9.90
2018-01-15T17:29:15.223Z,9.65
2018-01-15T17:31:43.303Z,9.80
2018-01-15T17:34:11.361Z,9.00
2018-01-15T17:36:39.438Z,9.90
2018-01-15T17:39:07.502Z,8.80
2018-01-15T17:41:35.574Z,10.20
2018-01-15T17:44:04.409Z,9.63
2018-01-15T17:46:32.485Z,8.60
2018-01-15T17:49:00.551Z,10.35
2018-01-15T17:51:28.652Z,10.40
2018-01-15T17:53:56.721Z,9.35
2018-01-15T17:56:24.806Z,10.40
2018-01-15T17:58:52.870Z,10.68
2018-01-15T18:01:27.508Z,9.90
2018-01-15T18:03:57.513Z,9.25
2018-01-15T18:06:26.056Z,10.82
2018-01-15T18:08:54.118Z,9.60
2018-01-15T18:11:22.182Z,9.68
2018-01-15T18:13:52.211Z,9.25
2018-01-15T18:16:20.269Z,9.77
2018-01-15T18:18:48.342Z,11.23
2018-01-15T18:21:16.440Z,10.30
2018-01-15T18:23:46.700Z,12.20
2018-01-15T18:26:15.419Z,10.10
2018-01-15T18:28:43.515Z,8.20
2018-01-15T18:31:12.350Z,10.52
2018-01-15T18:33:40.426Z,10.63
2018-01-15T18:36:08.502Z,11.25
2018-01-15T18:38:36.579Z,9.90
2018-01-15T18:41:04.649Z,10.43
2018-01-15T18:43:32.730Z,12.00
2018-01-15T18:46:00.822Z,12.05
2018-01-15T18:48:28.883Z,9.63
2018-01-15T18:50:57.179Z,10.48
2018-01-15T18:53:26.019Z,11.88
2018-01-15T18:55:54.110Z,11.82
2018-01-15T18:58:22.171Z,9.85
2018-01-15T19:00:50.255Z,10.32
2018-01-15T19:03:18.327Z,9.68
2018-01-15T19:05:46.404Z,11.10
2018-01-15T19:08:14.479Z,9.98
2018-01-15T19:10:42.547Z,11.43
2018-01-15T19:13:10.619Z,9.57
2018-01-15T19:15:38.691Z,10.70
2018-01-15T19:18:06.772Z,9.48
2018-01-15T19:20:35.602Z,11.38
2018-01-15T19:23:04.601Z,11.40
2018-01-15T19:25:32.674Z,11.40
2018-01-15T19:28:00.751Z,11.20
2018-01-15T19:30:28.831Z,11.45
2018-01-15T19:32:56.898Z,11.30
2018-01-15T19:38:30.024Z,11.57
2018-01-15T19:40:58.081Z,10.38
2018-01-15T19:43:29.086Z,11.60
2018-01-15T19:46:02.787Z,9.68
2018-01-15T19:48:36.347Z,10.07
2018-01-15T19:51:10.022Z,10.77
2018-01-15T19:53:43.698Z,10.10
2018-01-15T19:56:17.379Z,10.35
2018-01-15T19:58:50.974Z,11.32
2018-01-15T20:01:24.565Z,9.82
2018-01-15T20:03:59.111Z,11.70
2018-01-15T20:09:38.130Z,10.55
2018-01-15T20:12:07.153Z,10.52
2018-01-15T20:14:35.259Z,9.85
2018-01-15T20:17:03.313Z,13.90
2018-01-15T20:19:31.386Z,11.52
2018-01-15T20:21:59.455Z,12.35
2018-01-15T20:24:27.526Z,10.60
2018-01-15T20:26:55.586Z,12.23
2018-01-15T20:29:23.654Z,10.27
2018-01-15T20:31:51.732Z,11.10
2018-01-15T20:34:19.795Z,9.52
2018-01-15T20:36:47.858Z,8.43
2018-01-15T20:39:15.945Z,10.18
2018-01-15T20:41:44.010Z,10.90
2018-01-15T20:44:12.075Z,9.32
2018-01-15T20:46:40.142Z,12.80
2018-01-15T20:49:08.206Z,10.35
2018-01-15T20:51:36.280Z,9.50
2018-01-15T20:54:04.336Z,9.50
2018-01-15T20:56:32.407Z,11.35
2018-01-15T20:59:00.474Z,10.68
2018-01-15T21:01:28.552Z,11.30
2018-01-15T21:03:56.631Z,10.77
2018-01-15T21:06:24.686Z,9.45
2018-01-15T21:08:52.764Z,9.00
2018-01-15T21:11:20.835Z,9.80
2018-01-15T21:13:48.893Z,11.25
2018-01-15T21:16:16.972Z,10.40
2018-01-15T21:18:45.028Z,10.75
2018-01-15T21:21:13.859Z,10.18
2018-01-15T21:23:41.935Z,10.35
2018-01-15T21:26:10.022Z,11.55
2018-01-15T21:28:38.082Z,9.93
2018-01-15T21:31:06.148Z,8.73
2018-01-15T21:33:34.217Z,10.32
2018-01-15T21:36:02.284Z,11.70
2018-01-15T21:38:30.352Z,10.00
2018-01-15T21:40:58.410Z,9.77
2018-01-15T21:43:26.480Z,10.65
2018-01-15T21:45:54.544Z,11.95
2018-01-15T21:48:22.619Z,10.38
2018-01-15T21:50:50.677Z,11.30
2018-01-15T21:53:18.747Z,10.45
2018-01-15T21:55:47.011Z,10.27
2018-01-15T21:58:15.896Z,10.38
2018-01-15T22:00:44.723Z,10.43
2018-01-15T22:03:12.787Z,10.82
2018-01-15T22:05:40.847Z,10.75
2018-01-15T22:08:08.913Z,10.60
2018-01-15T22:10:37.043Z,11.95
2018-01-15T22:13:05.102Z,10.02
2018-01-15T22:15:33.161Z,10.68
2018-01-15T22:18:01.239Z,10.18
2018-01-15T22:20:29.298Z,9.13
2018-01-15T22:22:57.353Z,8.80
2018-01-15T22:25:25.430Z,10.57
2018-01-15T22:27:53.495Z,10.05
2018-01-15T22:30:21.562Z,10.00
2018-01-15T22:32:49.618Z,10.30
2018-01-15T22:35:17.695Z,10.73
2018-01-15T22:37:45.759Z,10.20
2018-01-15T22:40:13.840Z,11.77
2018-01-15T22:42:41.895Z,10.50
2018-01-15T22:45:10.017Z,10.57
2018-01-15T22:47:38.074Z,9.25
2018-01-15T22:50:06.145Z,8.40
2018-01-15T22:52:34.685Z,9.52
2018-01-15T22:55:02.764Z,9.38
2018-01-15T22:57:30.823Z,11.70
2018-01-15T22:59:58.890Z,9.95
2018-01-15T23:02:27.726Z,10.68
2018-01-15T23:04:55.788Z,7.95
2018-01-15T23:07:23.861Z,10.50
2018-01-15T23:09:51.926Z,10.68
2018-01-15T23:12:19.996Z,9.30
2018-01-15T23:14:48.052Z,9.40
2018-01-15T23:17:16.124Z,8.98
2018-01-15T23:19:44.238Z,8.20
2018-01-15T23:22:12.251Z,9.73
2018-01-15T23:24:40.305Z,7.53
2018-01-15T23:27:09.143Z,10.52
2018-01-15T23:29:37.201Z,11.75
2018-01-15T23:32:05.272Z,10.07
2018-01-15T23:34:33.326Z,9.63
2018-01-15T23:37:01.385Z,9.15
2018-01-15T23:39:29.447Z,9.57
2018-01-15T23:41:58.282Z,10.77
2018-01-15T23:44:26.342Z,10.45
2018-01-15T23:46:54.415Z,10.25
2018-01-15T23:49:22.483Z,11.15
2018-01-15T23:51:50.546Z,11.40
2018-01-15T23:54:33.517Z,10.70
2018-01-15T23:57:01.582Z,11.63
2018-01-15T23:59:29.647Z,9.98
